sensor_id;sensor_type;location;lat;lon;timestamp;P1;durP1;ratioP1;P2;durP2;ratioP2
69795;SDS011;57073;45.650;9.612;2022-08-19T00:00:37;3.95;;;1.50;;
69795;SDS011;57073;45.650;9.612;2022-08-19T00:02:38;4.00;;;1.30;;
69795;SDS011;57073;45.650;9.612;2022-08-19T00:04:38;2.13;;;1.20;;
69795;SDS011;57073;45.650;9.612;2022-08-19T00:06:41;3.40;;;1.27;;
69795;SDS011;57073;45.650;9.612;2022-08-19T00:08:42;5.22;;;1.27;;
69795;SDS011;57073;45.650;9.612;2022-08-19T00:10:43;2.53;;;1.40;;
69795;SDS011;57073;45.650;9.612;2022-08-19T00:12:43;2.23;;;1.30;;
69795;SDS011;57073;45.650;9.612;2022-08-19T00:14:44;4.37;;;1.30;;
69795;SDS011;57073;45.650;9.612;2022-08-19T00:16:45;2.40;;;1.40;;
69795;SDS011;57073;45.650;9.612;2022-08-19T00:18:47;1.70;;;1.30;;
69795;SDS011;57073;45.650;9.612;2022-08-19T00:20:48;3.25;;;1.52;;
69795;SDS011;57073;45.650;9.612;2022-08-19T00:22:48;3.70;;;1.60;;
69795;SDS011;57073;45.650;9.612;2022-08-19T00:24:49;3.10;;;1.20;;
69795;SDS011;57073;45.650;9.612;2022-08-19T00:26:49;2.55;;;1.50;;
69795;SDS011;57073;45.650;9.612;2022-08-19T00:28:50;4.67;;;1.40;;
69795;SDS011;57073;45.650;9.612;2022-08-19T00:30:51;2.30;;;1.30;;
69795;SDS011;57073;45.650;9.612;2022-08-19T00:32:53;2.57;;;1.50;;
69795;SDS011;57073;45.650;9.612;2022-08-19T00:34:55;2.70;;;1.50;;
69795;SDS011;57073;45.650;9.612;2022-08-19T00:36:56;4.30;;;1.40;;
69795;SDS011;57073;45.650;9.612;2022-08-19T00:38:57;2.25;;;1.00;;
69795;SDS011;57073;45.650;9.612;2022-08-19T00:40:58;1.77;;;1.10;;
69795;SDS011;57073;45.650;9.612;2022-08-19T00:42:58;2.22;;;1.08;;
69795;SDS011;57073;45.650;9.612;2022-08-19T00:44:59;3.73;;;1.10;;
69795;SDS011;57073;45.650;9.612;2022-08-19T00:47:00;2.28;;;1.33;;
69795;SDS011;57073;45.650;9.612;2022-08-19T00:49:00;2.50;;;1.30;;
69795;SDS011;57073;45.650;9.612;2022-08-19T00:51:06;2.17;;;1.20;;
69795;SDS011;57073;45.650;9.612;2022-08-19T00:53:06;2.87;;;1.20;;
69795;SDS011;57073;45.650;9.612;2022-08-19T00:55:07;3.53;;;1.13;;
69795;SDS011;57073;45.650;9.612;2022-08-19T00:57:12;4.75;;;1.55;;
69795;SDS011;57073;45.650;9.612;2022-08-19T00:59:16;2.67;;;1.25;;
69795;SDS011;57073;45.650;9.612;2022-08-19T01:01:19;4.43;;;1.40;;
69795;SDS011;57073;45.650;9.612;2022-08-19T01:03:20;3.57;;;1.27;;
69795;SDS011;57073;45.650;9.612;2022-08-19T01:05:22;2.58;;;1.10;;
69795;SDS011;57073;45.650;9.612;2022-08-19T01:07:27;2.67;;;1.13;;
69795;SDS011;57073;45.650;9.612;2022-08-19T01:09:28;1.80;;;1.10;;
69795;SDS011;57073;45.650;9.612;2022-08-19T01:11:30;1.77;;;1.00;;
69795;SDS011;57073;45.650;9.612;2022-08-19T01:13:34;4.22;;;1.40;;
69795;SDS011;57073;45.650;9.612;2022-08-19T01:15:39;2.60;;;1.20;;
69795;SDS011;57073;45.650;9.612;2022-08-19T01:17:43;2.42;;;1.02;;
69795;SDS011;57073;45.650;9.612;2022-08-19T01:19:45;1.38;;;1.00;;
69795;SDS011;57073;45.650;9.612;2022-08-19T01:21:52;2.67;;;1.20;;
69795;SDS011;57073;45.650;9.612;2022-08-19T01:24:20;2.08;;;1.20;;
69795;SDS011;57073;45.650;9.612;2022-08-19T01:26:22;2.13;;;1.10;;
69795;SDS011;57073;45.650;9.612;2022-08-19T01:28:25;3.67;;;1.40;;
69795;SDS011;57073;45.650;9.612;2022-08-19T01:30:28;1.43;;;1.00;;
69795;SDS011;57073;45.650;9.612;2022-08-19T01:32:31;2.67;;;1.30;;
69795;SDS011;57073;45.650;9.612;2022-08-19T01:34:31;3.22;;;0.95;;
69795;SDS011;57073;45.650;9.612;2022-08-19T01:36:38;2.38;;;1.10;;
69795;SDS011;57073;45.650;9.612;2022-08-19T01:38:43;3.40;;;1.00;;
69795;SDS011;57073;45.650;9.612;2022-08-19T01:40:44;1.70;;;1.00;;
69795;SDS011;57073;45.650;9.612;2022-08-19T01:42:46;5.05;;;1.20;;
69795;SDS011;57073;45.650;9.612;2022-08-19T01:44:50;5.17;;;1.30;;
69795;SDS011;57073;45.650;9.612;2022-08-19T01:46:50;1.87;;;1.07;;
69795;SDS011;57073;45.650;9.612;2022-08-19T01:48:51;2.93;;;1.10;;
69795;SDS011;57073;45.650;9.612;2022-08-19T01:50:52;1.30;;;1.00;;
69795;SDS011;57073;45.650;9.612;2022-08-19T01:52:52;2.90;;;1.00;;
69795;SDS011;57073;45.650;9.612;2022-08-19T01:54:52;1.40;;;1.10;;
69795;SDS011;57073;45.650;9.612;2022-08-19T01:57:03;1.27;;;1.02;;
69795;SDS011;57073;45.650;9.612;2022-08-19T01:59:11;3.47;;;1.00;;
69795;SDS011;57073;45.650;9.612;2022-08-19T02:01:14;3.60;;;1.10;;
69795;SDS011;57073;45.650;9.612;2022-08-19T02:03:15;3.70;;;1.20;;
69795;SDS011;57073;45.650;9.612;2022-08-19T02:05:15;3.73;;;1.43;;
69795;SDS011;57073;45.650;9.612;2022-08-19T02:07:21;1.52;;;0.85;;
69795;SDS011;57073;45.650;9.612;2022-08-19T02:09:21;6.15;;;1.13;;
69795;SDS011;57073;45.650;9.612;2022-08-19T02:11:26;4.37;;;1.10;;
69795;SDS011;57073;45.650;9.612;2022-08-19T02:13:31;2.40;;;0.98;;
69795;SDS011;57073;45.650;9.612;2022-08-19T02:15:32;1.48;;;0.85;;
69795;SDS011;57073;45.650;9.612;2022-08-19T02:17:33;1.87;;;1.07;;
69795;SDS011;57073;45.650;9.612;2022-08-19T02:19:34;1.90;;;1.30;;
69795;SDS011;57073;45.650;9.612;2022-08-19T02:21:34;2.70;;;0.90;;
69795;SDS011;57073;45.650;9.612;2022-08-19T02:23:35;3.53;;;1.00;;
69795;SDS011;57073;45.650;9.612;2022-08-19T02:25:35;2.10;;;1.07;;
69795;SDS011;57073;45.650;9.612;2022-08-19T02:27:36;2.83;;;0.90;;
69795;SDS011;57073;45.650;9.612;2022-08-19T02:29:36;2.60;;;0.90;;
69795;SDS011;57073;45.650;9.612;2022-08-19T02:31:36;2.23;;;0.90;;
69795;SDS011;57073;45.650;9.612;2022-08-19T02:33:37;1.83;;;1.00;;
69795;SDS011;57073;45.650;9.612;2022-08-19T02:35:40;3.67;;;1.00;;
69795;SDS011;57073;45.650;9.612;2022-08-19T02:37:42;2.65;;;0.93;;
69795;SDS011;57073;45.650;9.612;2022-08-19T02:40:02;2.22;;;0.98;;
69795;SDS011;57073;45.650;9.612;2022-08-19T02:42:03;2.30;;;1.00;;
69795;SDS011;57073;45.650;9.612;2022-08-19T02:44:03;4.22;;;1.02;;
69795;SDS011;57073;45.650;9.612;2022-08-19T02:46:21;3.40;;;1.00;;
69795;SDS011;57073;45.650;9.612;2022-08-19T02:48:24;2.53;;;0.95;;
69795;SDS011;57073;45.650;9.612;2022-08-19T02:50:25;1.52;;;1.10;;
69795;SDS011;57073;45.650;9.612;2022-08-19T02:52:26;3.93;;;0.90;;
69795;SDS011;57073;45.650;9.612;2022-08-19T02:54:27;3.47;;;1.30;;
69795;SDS011;57073;45.650;9.612;2022-08-19T02:56:28;3.03;;;1.00;;
69795;SDS011;57073;45.650;9.612;2022-08-19T02:58:28;2.60;;;1.17;;
69795;SDS011;57073;45.650;9.612;2022-08-19T03:00:29;4.60;;;1.10;;
69795;SDS011;57073;45.650;9.612;2022-08-19T03:02:29;2.15;;;1.02;;
69795;SDS011;57073;45.650;9.612;2022-08-19T03:04:30;5.90;;;1.07;;
69795;SDS011;57073;45.650;9.612;2022-08-19T03:06:31;2.63;;;1.30;;
69795;SDS011;57073;45.650;9.612;2022-08-19T03:08:32;3.53;;;1.03;;
69795;SDS011;57073;45.650;9.612;2022-08-19T03:10:32;2.78;;;1.10;;
69795;SDS011;57073;45.650;9.612;2022-08-19T03:12:35;3.17;;;1.10;;
69795;SDS011;57073;45.650;9.612;2022-08-19T03:14:37;1.70;;;1.00;;
69795;SDS011;57073;45.650;9.612;2022-08-19T03:16:42;2.40;;;1.20;;
69795;SDS011;57073;45.650;9.612;2022-08-19T03:18:48;2.00;;;0.90;;
69795;SDS011;57073;45.650;9.612;2022-08-19T03:20:50;1.50;;;1.03;;
69795;SDS011;57073;45.650;9.612;2022-08-19T03:22:54;2.38;;;1.30;;
69795;SDS011;57073;45.650;9.612;2022-08-19T03:24:54;4.70;;;1.10;;
69795;SDS011;57073;45.650;9.612;2022-08-19T03:26:55;4.00;;;1.10;;
69795;SDS011;57073;45.650;9.612;2022-08-19T03:28:57;2.07;;;1.10;;
69795;SDS011;57073;45.650;9.612;2022-08-19T03:31:03;2.58;;;1.15;;
69795;SDS011;57073;45.650;9.612;2022-08-19T03:33:09;3.80;;;1.40;;
69795;SDS011;57073;45.650;9.612;2022-08-19T03:35:12;2.00;;;1.35;;
69795;SDS011;57073;45.650;9.612;2022-08-19T03:37:12;4.37;;;1.10;;
69795;SDS011;57073;45.650;9.612;2022-08-19T03:39:13;3.10;;;1.33;;
69795;SDS011;57073;45.650;9.612;2022-08-19T03:41:16;3.25;;;1.20;;
69795;SDS011;57073;45.650;9.612;2022-08-19T03:43:18;2.03;;;0.98;;
69795;SDS011;57073;45.650;9.612;2022-08-19T03:45:19;1.77;;;1.00;;
69795;SDS011;57073;45.650;9.612;2022-08-19T03:47:19;2.67;;;1.10;;
69795;SDS011;57073;45.650;9.612;2022-08-19T03:49:20;2.72;;;1.48;;
69795;SDS011;57073;45.650;9.612;2022-08-19T03:51:32;2.13;;;1.17;;
69795;SDS011;57073;45.650;9.612;2022-08-19T03:53:38;2.67;;;1.20;;
69795;SDS011;57073;45.650;9.612;2022-08-19T03:55:39;1.43;;;1.13;;
69795;SDS011;57073;45.650;9.612;2022-08-19T03:57:40;3.28;;;1.27;;
69795;SDS011;57073;45.650;9.612;2022-08-19T03:59:41;3.23;;;1.30;;
69795;SDS011;57073;45.650;9.612;2022-08-19T04:01:41;4.05;;;1.30;;
69795;SDS011;57073;45.650;9.612;2022-08-19T04:03:42;3.00;;;1.37;;
69795;SDS011;57073;45.650;9.612;2022-08-19T04:05:45;5.88;;;1.60;;
69795;SDS011;57073;45.650;9.612;2022-08-19T04:07:46;1.70;;;1.20;;
69795;SDS011;57073;45.650;9.612;2022-08-19T04:09:47;2.17;;;1.03;;
69795;SDS011;57073;45.650;9.612;2022-08-19T04:11:50;3.10;;;1.33;;
69795;SDS011;57073;45.650;9.612;2022-08-19T04:13:55;2.05;;;1.10;;
69795;SDS011;57073;45.650;9.612;2022-08-19T04:15:57;3.63;;;1.55;;
69795;SDS011;57073;45.650;9.612;2022-08-19T04:17:57;2.80;;;1.40;;
69795;SDS011;57073;45.650;9.612;2022-08-19T04:19:57;3.83;;;1.30;;
69795;SDS011;57073;45.650;9.612;2022-08-19T04:21:58;2.77;;;1.33;;
69795;SDS011;57073;45.650;9.612;2022-08-19T04:23:58;2.25;;;1.33;;
69795;SDS011;57073;45.650;9.612;2022-08-19T04:25:59;2.00;;;1.20;;
69795;SDS011;57073;45.650;9.612;2022-08-19T04:27:59;2.77;;;1.40;;
69795;SDS011;57073;45.650;9.612;2022-08-19T04:30:00;4.37;;;1.60;;
69795;SDS011;57073;45.650;9.612;2022-08-19T04:32:00;3.43;;;1.53;;
69795;SDS011;57073;45.650;9.612;2022-08-19T04:34:02;3.40;;;1.40;;
69795;SDS011;57073;45.650;9.612;2022-08-19T04:36:04;3.17;;;1.65;;
69795;SDS011;57073;45.650;9.612;2022-08-19T04:38:05;3.22;;;1.27;;
69795;SDS011;57073;45.650;9.612;2022-08-19T04:40:06;3.27;;;1.30;;
69795;SDS011;57073;45.650;9.612;2022-08-19T04:42:25;3.58;;;1.35;;
69795;SDS011;57073;45.650;9.612;2022-08-19T04:44:41;3.00;;;1.50;;
69795;SDS011;57073;45.650;9.612;2022-08-19T04:46:41;3.20;;;1.23;;
69795;SDS011;57073;45.650;9.612;2022-08-19T04:48:42;3.50;;;1.40;;
69795;SDS011;57073;45.650;9.612;2022-08-19T04:50:43;2.42;;;1.23;;
69795;SDS011;57073;45.650;9.612;2022-08-19T04:52:44;3.63;;;1.57;;
69795;SDS011;57073;45.650;9.612;2022-08-19T04:54:44;3.80;;;1.10;;
69795;SDS011;57073;45.650;9.612;2022-08-19T04:56:44;2.93;;;1.13;;
69795;SDS011;57073;45.650;9.612;2022-08-19T04:58:45;2.43;;;0.97;;
69795;SDS011;57073;45.650;9.612;2022-08-19T05:00:45;2.42;;;1.25;;
69795;SDS011;57073;45.650;9.612;2022-08-19T05:02:46;2.47;;;1.27;;
69795;SDS011;57073;45.650;9.612;2022-08-19T05:04:46;3.67;;;1.40;;
69795;SDS011;57073;45.650;9.612;2022-08-19T05:06:48;4.10;;;1.83;;
69795;SDS011;57073;45.650;9.612;2022-08-19T05:08:49;3.90;;;1.70;;
69795;SDS011;57073;45.650;9.612;2022-08-19T05:10:50;3.70;;;1.67;;
69795;SDS011;57073;45.650;9.612;2022-08-19T05:12:51;3.42;;;2.17;;
69795;SDS011;57073;45.650;9.612;2022-08-19T05:14:51;3.77;;;2.40;;
69795;SDS011;57073;45.650;9.612;2022-08-19T05:16:52;4.30;;;2.40;;
69795;SDS011;57073;45.650;9.612;2022-08-19T05:18:52;4.07;;;2.65;;
69795;SDS011;57073;45.650;9.612;2022-08-19T05:21:13;6.23;;;3.00;;
69795;SDS011;57073;45.650;9.612;2022-08-19T05:23:33;7.65;;;3.58;;
69795;SDS011;57073;45.650;9.612;2022-08-19T05:25:33;6.00;;;3.37;;
69795;SDS011;57073;45.650;9.612;2022-08-19T05:27:38;6.78;;;3.55;;
69795;SDS011;57073;45.650;9.612;2022-08-19T05:29:39;4.40;;;3.33;;
69795;SDS011;57073;45.650;9.612;2022-08-19T05:31:40;7.27;;;3.73;;
69795;SDS011;57073;45.650;9.612;2022-08-19T05:33:40;5.50;;;3.67;;
69795;SDS011;57073;45.650;9.612;2022-08-19T05:35:41;5.83;;;3.63;;
69795;SDS011;57073;45.650;9.612;2022-08-19T05:37:41;6.03;;;4.03;;
69795;SDS011;57073;45.650;9.612;2022-08-19T05:39:41;7.43;;;3.80;;
69795;SDS011;57073;45.650;9.612;2022-08-19T05:41:42;6.40;;;3.90;;
69795;SDS011;57073;45.650;9.612;2022-08-19T05:43:47;5.72;;;3.38;;
69795;SDS011;57073;45.650;9.612;2022-08-19T05:45:47;5.70;;;3.67;;
69795;SDS011;57073;45.650;9.612;2022-08-19T05:47:50;10.00;;;4.00;;
69795;SDS011;57073;45.650;9.612;2022-08-19T05:49:50;5.70;;;3.70;;
69795;SDS011;57073;45.650;9.612;2022-08-19T05:51:51;9.18;;;4.30;;
69795;SDS011;57073;45.650;9.612;2022-08-19T05:53:51;7.53;;;3.80;;
69795;SDS011;57073;45.650;9.612;2022-08-19T05:55:52;7.70;;;4.07;;
69795;SDS011;57073;45.650;9.612;2022-08-19T05:57:52;6.90;;;4.17;;
69795;SDS011;57073;45.650;9.612;2022-08-19T05:59:52;6.10;;;4.33;;
69795;SDS011;57073;45.650;9.612;2022-08-19T06:01:53;6.53;;;4.65;;
69795;SDS011;57073;45.650;9.612;2022-08-19T06:03:55;7.03;;;4.90;;
69795;SDS011;57073;45.650;9.612;2022-08-19T06:05:56;11.23;;;5.70;;
69795;SDS011;57073;45.650;9.612;2022-08-19T06:07:58;7.60;;;5.28;;
69795;SDS011;57073;45.650;9.612;2022-08-19T06:09:59;8.97;;;5.70;;
69795;SDS011;57073;45.650;9.612;2022-08-19T06:11:59;8.77;;;5.07;;
69795;SDS011;57073;45.650;9.612;2022-08-19T06:14:01;9.70;;;5.17;;
69795;SDS011;57073;45.650;9.612;2022-08-19T06:16:03;8.55;;;5.25;;
69795;SDS011;57073;45.650;9.612;2022-08-19T06:18:04;7.85;;;5.28;;
69795;SDS011;57073;45.650;9.612;2022-08-19T06:20:06;8.87;;;5.00;;
69795;SDS011;57073;45.650;9.612;2022-08-19T06:22:10;10.93;;;5.50;;
69795;SDS011;57073;45.650;9.612;2022-08-19T06:24:12;12.43;;;6.37;;
69795;SDS011;57073;45.650;9.612;2022-08-19T06:26:16;8.50;;;6.00;;
69795;SDS011;57073;45.650;9.612;2022-08-19T06:28:16;7.93;;;5.65;;
69795;SDS011;57073;45.650;9.612;2022-08-19T06:30:17;10.67;;;5.33;;
69795;SDS011;57073;45.650;9.612;2022-08-19T06:32:17;7.97;;;5.40;;
69795;SDS011;57073;45.650;9.612;2022-08-19T06:34:19;7.57;;;5.65;;
69795;SDS011;57073;45.650;9.612;2022-08-19T06:36:21;9.73;;;5.05;;
69795;SDS011;57073;45.650;9.612;2022-08-19T06:38:31;7.90;;;5.40;;
69795;SDS011;57073;45.650;9.612;2022-08-19T06:40:33;10.23;;;5.47;;
69795;SDS011;57073;45.650;9.612;2022-08-19T06:42:36;10.68;;;5.97;;
69795;SDS011;57073;45.650;9.612;2022-08-19T06:44:41;7.37;;;5.23;;
69795;SDS011;57073;45.650;9.612;2022-08-19T06:46:43;6.88;;;5.38;;
69795;SDS011;57073;45.650;9.612;2022-08-19T06:48:43;11.38;;;5.60;;
69795;SDS011;57073;45.650;9.612;2022-08-19T06:50:44;9.67;;;5.37;;
69795;SDS011;57073;45.650;9.612;2022-08-19T06:52:44;10.10;;;5.53;;
69795;SDS011;57073;45.650;9.612;2022-08-19T06:54:44;12.50;;;5.63;;
69795;SDS011;57073;45.650;9.612;2022-08-19T06:56:45;9.83;;;5.63;;
69795;SDS011;57073;45.650;9.612;2022-08-19T06:58:45;11.77;;;6.20;;
69795;SDS011;57073;45.650;9.612;2022-08-19T07:00:46;11.82;;;5.50;;
69795;SDS011;57073;45.650;9.612;2022-08-19T07:02:46;9.77;;;6.07;;
69795;SDS011;57073;45.650;9.612;2022-08-19T07:04:47;10.33;;;5.50;;
69795;SDS011;57073;45.650;9.612;2022-08-19T07:06:48;10.23;;;6.18;;
69795;SDS011;57073;45.650;9.612;2022-08-19T07:08:49;9.27;;;5.93;;
69795;SDS011;57073;45.650;9.612;2022-08-19T07:10:50;6.72;;;5.03;;
69795;SDS011;57073;45.650;9.612;2022-08-19T07:12:50;12.17;;;5.40;;
69795;SDS011;57073;45.650;9.612;2022-08-19T07:14:51;10.98;;;6.30;;
69795;SDS011;57073;45.650;9.612;2022-08-19T07:16:52;7.67;;;5.63;;
69795;SDS011;57073;45.650;9.612;2022-08-19T07:18:55;10.85;;;6.03;;
69795;SDS011;57073;45.650;9.612;2022-08-19T07:21:06;10.00;;;4.93;;
69795;SDS011;57073;45.650;9.612;2022-08-19T07:23:11;4.55;;;1.90;;
69795;SDS011;57073;45.650;9.612;2022-08-19T07:25:12;2.73;;;1.17;;
69795;SDS011;57073;45.650;9.612;2022-08-19T07:27:13;5.82;;;1.40;;
69795;SDS011;57073;45.650;9.612;2022-08-19T07:29:14;3.78;;;1.27;;
69795;SDS011;57073;45.650;9.612;2022-08-19T07:31:18;2.45;;;1.20;;
69795;SDS011;57073;45.650;9.612;2022-08-19T07:33:20;3.15;;;1.13;;
69795;SDS011;57073;45.650;9.612;2022-08-19T07:35:21;4.23;;;0.90;;
69795;SDS011;57073;45.650;9.612;2022-08-19T07:37:22;2.25;;;0.85;;
69795;SDS011;57073;45.650;9.612;2022-08-19T07:39:24;2.53;;;1.00;;
69795;SDS011;57073;45.650;9.612;2022-08-19T07:41:28;4.40;;;1.00;;
69795;SDS011;57073;45.650;9.612;2022-08-19T07:43:30;2.13;;;0.90;;
69795;SDS011;57073;45.650;9.612;2022-08-19T07:45:31;2.75;;;0.95;;
69795;SDS011;57073;45.650;9.612;2022-08-19T07:47:32;2.53;;;0.93;;
69795;SDS011;57073;45.650;9.612;2022-08-19T07:49:33;4.55;;;1.10;;
69795;SDS011;57073;45.650;9.612;2022-08-19T07:51:33;3.93;;;1.23;;
69795;SDS011;57073;45.650;9.612;2022-08-19T07:53:34;3.28;;;1.50;;
69795;SDS011;57073;45.650;9.612;2022-08-19T07:55:36;3.13;;;1.50;;
69795;SDS011;57073;45.650;9.612;2022-08-19T07:57:36;3.30;;;1.50;;
69795;SDS011;57073;45.650;9.612;2022-08-19T07:59:38;3.08;;;1.50;;
69795;SDS011;57073;45.650;9.612;2022-08-19T08:01:39;5.00;;;1.43;;
69795;SDS011;57073;45.650;9.612;2022-08-19T08:03:39;2.55;;;1.38;;
69795;SDS011;57073;45.650;9.612;2022-08-19T08:05:58;4.57;;;1.70;;
69795;SDS011;57073;45.650;9.612;2022-08-19T08:08:17;2.67;;;1.60;;
69795;SDS011;57073;45.650;9.612;2022-08-19T08:10:36;3.60;;;1.77;;
69795;SDS011;57073;45.650;9.612;2022-08-19T08:12:38;2.93;;;1.67;;
69795;SDS011;57073;45.650;9.612;2022-08-19T08:14:47;4.93;;;2.00;;
69795;SDS011;57073;45.650;9.612;2022-08-19T08:16:49;4.55;;;2.50;;
69795;SDS011;57073;45.650;9.612;2022-08-19T08:18:51;3.80;;;2.35;;
69795;SDS011;57073;45.650;9.612;2022-08-19T08:20:51;5.30;;;2.40;;
69795;SDS011;57073;45.650;9.612;2022-08-19T08:22:51;5.50;;;1.93;;
69795;SDS011;57073;45.650;9.612;2022-08-19T08:25:15;3.65;;;1.52;;
69795;SDS011;57073;45.650;9.612;2022-08-19T08:27:19;3.28;;;1.80;;
69795;SDS011;57073;45.650;9.612;2022-08-19T08:29:19;6.70;;;2.50;;
69795;SDS011;57073;45.650;9.612;2022-08-19T08:31:20;5.60;;;2.70;;
69795;SDS011;57073;45.650;9.612;2022-08-19T08:33:21;7.67;;;4.47;;
69795;SDS011;57073;45.650;9.612;2022-08-19T08:35:23;10.23;;;5.30;;
69795;SDS011;57073;45.650;9.612;2022-08-19T08:37:24;10.00;;;5.20;;
69795;SDS011;57073;45.650;9.612;2022-08-19T08:39:24;7.40;;;4.80;;
69795;SDS011;57073;45.650;9.612;2022-08-19T08:41:30;7.87;;;4.67;;
69795;SDS011;57073;45.650;9.612;2022-08-19T08:43:49;7.05;;;3.67;;
69795;SDS011;57073;45.650;9.612;2022-08-19T08:46:39;6.90;;;3.20;;
69795;SDS011;57073;45.650;9.612;2022-08-19T08:50:50;8.15;;;4.15;;
69795;SDS011;57073;45.650;9.612;2022-08-19T08:52:55;6.15;;;3.78;;
69795;SDS011;57073;45.650;9.612;2022-08-19T08:54:57;8.18;;;4.05;;
69795;SDS011;57073;45.650;9.612;2022-08-19T08:57:00;6.13;;;3.50;;
69795;SDS011;57073;45.650;9.612;2022-08-19T08:59:05;10.43;;;3.97;;
69795;SDS011;57073;45.650;9.612;2022-08-19T09:01:12;8.32;;;3.25;;
69795;SDS011;57073;45.650;9.612;2022-08-19T09:03:23;5.17;;;3.33;;
69795;SDS011;57073;45.650;9.612;2022-08-19T09:05:27;5.25;;;3.15;;
69795;SDS011;57073;45.650;9.612;2022-08-19T09:15:03;4.10;;;1.40;;
69795;SDS011;57073;45.650;9.612;2022-08-19T09:17:08;3.05;;;1.23;;
69795;SDS011;57073;45.650;9.612;2022-08-19T09:19:09;4.45;;;1.35;;
69795;SDS011;57073;45.650;9.612;2022-08-19T09:21:10;4.45;;;1.25;;
69795;SDS011;57073;45.650;9.612;2022-08-19T09:23:10;4.87;;;1.50;;
69795;SDS011;57073;45.650;9.612;2022-08-19T09:25:12;3.93;;;1.47;;
69795;SDS011;57073;45.650;9.612;2022-08-19T09:27:15;4.30;;;1.50;;
69795;SDS011;57073;45.650;9.612;2022-08-19T09:29:15;2.03;;;1.00;;
69795;SDS011;57073;45.650;9.612;2022-08-19T09:31:19;3.57;;;1.30;;
69795;SDS011;57073;45.650;9.612;2022-08-19T09:33:22;3.10;;;1.30;;
69795;SDS011;57073;45.650;9.612;2022-08-19T09:35:23;4.37;;;1.47;;
69795;SDS011;57073;45.650;9.612;2022-08-19T09:37:25;3.60;;;1.20;;
69795;SDS011;57073;45.650;9.612;2022-08-19T09:39:26;3.97;;;1.67;;
69795;SDS011;57073;45.650;9.612;2022-08-19T09:41:26;5.33;;;1.70;;
69795;SDS011;57073;45.650;9.612;2022-08-19T09:43:27;3.28;;;1.55;;
69795;SDS011;57073;45.650;9.612;2022-08-19T09:45:28;4.43;;;1.70;;
69795;SDS011;57073;45.650;9.612;2022-08-19T09:47:29;3.65;;;1.63;;
69795;SDS011;57073;45.650;9.612;2022-08-19T09:49:29;3.55;;;1.67;;
69795;SDS011;57073;45.650;9.612;2022-08-19T09:51:31;4.30;;;1.50;;
69795;SDS011;57073;45.650;9.612;2022-08-19T09:53:31;5.45;;;1.88;;
69795;SDS011;57073;45.650;9.612;2022-08-19T09:55:32;3.30;;;1.50;;
69795;SDS011;57073;45.650;9.612;2022-08-19T09:57:32;4.77;;;1.70;;
69795;SDS011;57073;45.650;9.612;2022-08-19T09:59:33;2.75;;;1.52;;
69795;SDS011;57073;45.650;9.612;2022-08-19T10:01:34;2.60;;;1.35;;
69795;SDS011;57073;45.650;9.612;2022-08-19T10:03:36;1.73;;;1.00;;
69795;SDS011;57073;45.650;9.612;2022-08-19T10:05:36;1.90;;;1.00;;
69795;SDS011;57073;45.650;9.612;2022-08-19T10:07:49;2.97;;;1.00;;
69795;SDS011;57073;45.650;9.612;2022-08-19T10:09:50;1.50;;;0.73;;
69795;SDS011;57073;45.650;9.612;2022-08-19T10:11:50;2.17;;;0.97;;
69795;SDS011;57073;45.650;9.612;2022-08-19T10:13:50;2.35;;;0.80;;
69795;SDS011;57073;45.650;9.612;2022-08-19T10:15:55;3.57;;;1.10;;
69795;SDS011;57073;45.650;9.612;2022-08-19T10:17:56;3.63;;;1.10;;
69795;SDS011;57073;45.650;9.612;2022-08-19T10:19:58;2.50;;;0.90;;
69795;SDS011;57073;45.650;9.612;2022-08-19T10:22:01;3.70;;;1.00;;
69795;SDS011;57073;45.650;9.612;2022-08-19T10:24:04;4.90;;;0.90;;
69795;SDS011;57073;45.650;9.612;2022-08-19T10:26:06;2.40;;;1.05;;
69795;SDS011;57073;45.650;9.612;2022-08-19T10:28:07;2.40;;;0.98;;
69795;SDS011;57073;45.650;9.612;2022-08-19T10:30:07;3.60;;;1.20;;
69795;SDS011;57073;45.650;9.612;2022-08-19T10:32:08;3.00;;;1.25;;
69795;SDS011;57073;45.650;9.612;2022-08-19T10:34:09;3.53;;;1.30;;
69795;SDS011;57073;45.650;9.612;2022-08-19T10:36:11;2.80;;;1.53;;
69795;SDS011;57073;45.650;9.612;2022-08-19T10:38:20;6.07;;;1.67;;
69795;SDS011;57073;45.650;9.612;2022-08-19T10:40:21;4.77;;;1.70;;
69795;SDS011;57073;45.650;9.612;2022-08-19T10:42:22;4.40;;;1.52;;
69795;SDS011;57073;45.650;9.612;2022-08-19T10:44:22;4.10;;;1.63;;
69795;SDS011;57073;45.650;9.612;2022-08-19T10:46:24;5.38;;;1.50;;
69795;SDS011;57073;45.650;9.612;2022-08-19T10:48:27;3.97;;;1.40;;
69795;SDS011;57073;45.650;9.612;2022-08-19T10:50:27;4.70;;;2.50;;
69795;SDS011;57073;45.650;9.612;2022-08-19T10:52:49;5.50;;;2.50;;
69795;SDS011;57073;45.650;9.612;2022-08-19T10:54:50;4.82;;;2.15;;
69795;SDS011;57073;45.650;9.612;2022-08-19T10:57:09;5.97;;;2.13;;
69795;SDS011;57073;45.650;9.612;2022-08-19T10:59:09;4.47;;;2.47;;
69795;SDS011;57073;45.650;9.612;2022-08-19T11:01:11;4.25;;;2.50;;
69795;SDS011;57073;45.650;9.612;2022-08-19T11:03:11;5.23;;;2.60;;
69795;SDS011;57073;45.650;9.612;2022-08-19T11:05:12;4.13;;;2.40;;
69795;SDS011;57073;45.650;9.612;2022-08-19T11:07:14;6.78;;;2.22;;
69795;SDS011;57073;45.650;9.612;2022-08-19T11:09:16;3.67;;;2.00;;
69795;SDS011;57073;45.650;9.612;2022-08-19T11:11:18;3.47;;;1.92;;
69795;SDS011;57073;45.650;9.612;2022-08-19T11:13:18;3.83;;;2.10;;
69795;SDS011;57073;45.650;9.612;2022-08-19T11:15:19;3.97;;;2.00;;
69795;SDS011;57073;45.650;9.612;2022-08-19T11:17:20;6.68;;;2.50;;
69795;SDS011;57073;45.650;9.612;2022-08-19T11:19:23;4.47;;;2.00;;
69795;SDS011;57073;45.650;9.612;2022-08-19T11:21:25;4.47;;;2.05;;
69795;SDS011;57073;45.650;9.612;2022-08-19T11:23:27;6.10;;;2.17;;
69795;SDS011;57073;45.650;9.612;2022-08-19T11:25:27;6.03;;;2.00;;
69795;SDS011;57073;45.650;9.612;2022-08-19T11:27:28;5.17;;;2.17;;
69795;SDS011;57073;45.650;9.612;2022-08-19T11:29:28;4.97;;;2.40;;
69795;SDS011;57073;45.650;9.612;2022-08-19T11:31:30;5.33;;;2.27;;
69795;SDS011;57073;45.650;9.612;2022-08-19T11:33:33;3.88;;;2.38;;
69795;SDS011;57073;45.650;9.612;2022-08-19T11:35:33;4.20;;;3.07;;
69795;SDS011;57073;45.650;9.612;2022-08-19T11:37:34;3.83;;;2.55;;
69795;SDS011;57073;45.650;9.612;2022-08-19T11:39:37;4.95;;;2.50;;
69795;SDS011;57073;45.650;9.612;2022-08-19T11:41:38;5.13;;;2.88;;
69795;SDS011;57073;45.650;9.612;2022-08-19T11:43:38;4.20;;;2.90;;
69795;SDS011;57073;45.650;9.612;2022-08-19T11:45:39;6.35;;;3.05;;
69795;SDS011;57073;45.650;9.612;2022-08-19T11:47:41;5.60;;;2.80;;
69795;SDS011;57073;45.650;9.612;2022-08-19T11:49:41;5.27;;;3.00;;
69795;SDS011;57073;45.650;9.612;2022-08-19T11:51:42;4.03;;;2.50;;
69795;SDS011;57073;45.650;9.612;2022-08-19T11:53:43;5.35;;;2.90;;
69795;SDS011;57073;45.650;9.612;2022-08-19T11:55:43;4.37;;;2.60;;
69795;SDS011;57073;45.650;9.612;2022-08-19T11:57:44;6.50;;;2.67;;
69795;SDS011;57073;45.650;9.612;2022-08-19T11:59:50;4.65;;;2.40;;
69795;SDS011;57073;45.650;9.612;2022-08-19T12:01:52;5.80;;;2.80;;
69795;SDS011;57073;45.650;9.612;2022-08-19T12:03:53;4.18;;;2.40;;
69795;SDS011;57073;45.650;9.612;2022-08-19T12:05:55;4.10;;;2.70;;
69795;SDS011;57073;45.650;9.612;2022-08-19T12:07:56;5.75;;;2.78;;
69795;SDS011;57073;45.650;9.612;2022-08-19T12:09:57;7.37;;;3.10;;
69795;SDS011;57073;45.650;9.612;2022-08-19T12:11:57;5.10;;;2.60;;
69795;SDS011;57073;45.650;9.612;2022-08-19T12:13:58;5.17;;;2.90;;
69795;SDS011;57073;45.650;9.612;2022-08-19T12:15:58;4.60;;;2.60;;
69795;SDS011;57073;45.650;9.612;2022-08-19T12:17:59;4.43;;;2.53;;
69795;SDS011;57073;45.650;9.612;2022-08-19T12:19:59;4.40;;;2.50;;
69795;SDS011;57073;45.650;9.612;2022-08-19T12:22:00;4.95;;;2.70;;
69795;SDS011;57073;45.650;9.612;2022-08-19T12:24:03;7.37;;;2.70;;
69795;SDS011;57073;45.650;9.612;2022-08-19T12:26:05;5.70;;;2.60;;
69795;SDS011;57073;45.650;9.612;2022-08-19T12:28:05;6.30;;;3.13;;